Time;durP1;ratioP1;P1;durP2;ratioP2;P2;SDS_P1;SDS_P2;PMS_P1;PMS_P2;Temp;Humidity;BMP_temperature;BMP_pressure;BME280_temperature;BME280_humidity;BME280_pressure;Samples;Min_cycle;Max_cycle;Signal;HPM_P1;HPM_P2
2023/09/06 00:01:05;;;;;;;6.22;4.78;;;;;;;18.50;67.94;95433.56;5086040;28;20024;-81
2023/09/06 00:03:30;;;;;;;5.57;4.95;;;;;;;18.50;67.47;95439.13;5067205;28;20039;-82
2023/09/06 00:05:58;;;;;;;6.13;5.22;;;;;;;18.39;67.73;95433.34;5086236;28;20028;-82
2023/09/06 00:08:24;;;;;;;5.43;4.93;;;;;;;18.43;68.11;95442.28;5085804;28;20021;-80
2023/09/06 00:10:49;;;;;;;6.35;4.90;;;;;;;18.39;68.34;95433.34;5085652;28;20435;-81
2023/09/06 00:13:17;;;;;;;6.63;5.35;;;;;;;18.39;67.90;95434.09;5085638;28;20020;-80
2023/09/06 00:15:42;;;;;;;6.07;5.30;;;;;;;18.36;68.21;95425.94;5067577;28;20020;-81
2023/09/06 00:18:08;;;;;;;5.18;4.55;;;;;;;18.34;68.63;95436.78;5085996;28;20043;-81
2023/09/06 00:20:38;;;;;;;7.28;5.50;;;;;;;18.36;68.45;95432.28;5067188;28;20028;-82
2023/09/06 00:23:13;;;;;;;8.07;5.15;;;;;;;18.33;68.52;95424.88;5085855;28;20028;-82
2023/09/06 00:25:38;;;;;;;5.97;5.18;;;;;;;18.30;68.81;95423.81;5084752;28;20123;-80
2023/09/06 00:28:05;;;;;;;6.30;5.13;;;;;;;18.33;68.55;95435.25;5085878;28;20100;-81
2023/09/06 00:30:31;;;;;;;6.18;5.10;;;;;;;18.32;68.78;95434.47;5089535;28;20028;-81
2023/09/06 00:33:42;;;;;;;7.95;5.55;;;;;;;18.28;68.49;95440.22;5089601;28;20403;-81
2023/09/06 00:36:07;;;;;;;5.80;4.38;;;;;;;18.20;67.62;95430.69;5089858;28;20042;-81
2023/09/06 00:38:33;;;;;;;5.38;4.63;;;;;;;18.22;67.99;95430.97;5088616;28;20032;-81
2023/09/06 00:40:58;;;;;;;5.50;4.97;;;;;;;18.21;67.83;95423.88;5089404;28;20036;-81
2023/09/06 00:43:23;;;;;;;5.25;4.40;;;;;;;18.19;68.32;95431.94;5089192;28;20040;-82
2023/09/06 00:45:50;;;;;;;5.90;4.97;;;;;;;18.17;68.50;95422.53;5070789;28;20538;-82
2023/09/06 00:48:26;;;;;;;8.15;5.05;;;;;;;18.17;69.02;95420.50;5089466;28;20073;-81
2023/09/06 00:50:56;;;;;;;6.75;4.85;;;;;;;18.10;69.21;95411.75;5070492;28;20039;-81
2023/09/06 00:53:23;;;;;;;5.90;5.22;;;;;;;18.15;69.31;95422.25;5089632;28;20035;-80
2023/09/06 00:55:48;;;;;;;6.13;5.38;;;;;;;18.14;68.93;95424.25;5070156;28;20107;-80
2023/09/06 00:58:18;;;;;;;6.38;4.93;;;;;;;18.10;69.00;95406.97;5089371;28;20107;-81
2023/09/06 01:00:48;;;;;;;5.13;4.60;;;;;;;18.13;69.14;95413.59;5070608;28;20031;-80
2023/09/06 01:03:15;;;;;;;5.80;5.20;;;;;;;18.08;69.55;95406.69;5088763;28;20113;-81
2023/09/06 01:05:46;;;;;;;6.70;5.20;;;;;;;18.08;69.35;95419.81;5088922;28;20100;-80
2023/09/06 01:08:18;;;;;;;5.97;5.07;;;;;;;18.06;69.55;95400.81;5070454;28;20027;-80
2023/09/06 01:10:44;;;;;;;6.53;5.28;;;;;;;18.07;69.57;95405.16;5071334;28;20057;-81
2023/09/06 01:13:10;;;;;;;7.43;5.57;;;;;;;18.02;69.62;95405.78;5088608;28;20031;-82
2023/09/06 01:15:37;;;;;;;8.32;5.55;;;;;;;18.05;69.95;95410.41;5089093;28;20055;-81
2023/09/06 01:18:04;;;;;;;5.90;5.18;;;;;;;18.04;69.62;95408.88;5088285;28;20024;-82
2023/09/06 01:20:52;;;;;;;7.78;5.43;;;;;;;18.01;69.36;95405.03;5088472;28;20028;-81
2023/09/06 01:23:38;;;;;;;6.25;5.40;;;;;;;18.05;69.29;95405.59;5071083;28;20028;-80
2023/09/06 01:26:05;;;;;;;6.30;5.45;;;;;;;18.01;69.49;95415.38;5069960;28;20118;-81
2023/09/06 01:28:31;;;;;;;6.07;5.30;;;;;;;18.04;69.23;95412.41;5070431;28;20032;-81
2023/09/06 01:30:59;;;;;;;6.38;5.47;;;;;;;18.04;69.39;95414.44;5069870;28;20528;-81
2023/09/06 01:33:25;;;;;;;7.55;5.40;;;;;;;18.07;69.27;95421.84;5088071;28;20111;-80
2023/09/06 01:35:51;;;;;;;5.93;4.80;;;;;;;18.08;69.60;95422.59;5088383;28;20142;-82
2023/09/06 01:38:16;;;;;;;5.47;4.90;;;;;;;17.97;69.36;95410.00;5088540;28;20024;-81
2023/09/06 01:40:43;;;;;;;6.43;5.30;;;;;;;18.03;68.97;95410.88;5087251;28;20490;-80
2023/09/06 01:43:09;;;;;;;6.10;5.40;;;;;;;18.05;68.71;95407.63;5087939;28;20028;-80
2023/09/06 01:45:43;;;;;;;8.43;5.25;;;;;;;18.03;68.92;95405.31;5088383;28;20035;-80
2023/09/06 01:48:08;;;;;;;7.15;4.88;;;;;;;18.03;68.79;95404.56;5087593;28;20020;-79
2023/09/06 01:50:33;;;;;;;7.03;5.13;;;;;;;18.03;68.69;95396.19;5088136;28;20582;-81
2023/09/06 01:52:59;;;;;;;7.85;5.68;;;;;;;18.06;68.30;95389.66;5087824;28;20082;-80
2023/09/06 01:55:24;;;;;;;6.53;5.30;;;;;;;17.99;68.50;95390.81;5087953;28;20049;-81
2023/09/06 01:57:49;;;;;;;5.40;4.68;;;;;;;17.98;67.93;95388.50;5087995;28;20031;-81
2023/09/06 02:00:23;;;;;;;;;;;;;;;;;;;;;
2023/09/06 02:02:46;;;;;;;5.50;4.88;;;;;;;18.05;67.69;95394.47;5087869;28;20028;-80
2023/09/06 02:05:12;;;;;;;6.13;5.05;;;;;;;18.03;67.51;95390.63;5069250;28;20222;-79
2023/09/06 02:07:37;;;;;;;7.28;5.00;;;;;;;18.07;67.48;95396.03;5069383;28;20023;-81
2023/09/06 02:10:09;;;;;;;6.40;5.55;;;;;;;18.06;67.24;95392.47;5087277;28;20040;-81
2023/09/06 02:12:35;;;;;;;5.55;4.68;;;;;;;18.06;67.16;95398.03;5087802;28;20024;-81
2023/09/06 02:15:04;;;;;;;7.50;5.15;;;;;;;17.99;66.80;95388.03;5087745;28;20032;-81
2023/09/06 02:17:29;;;;;;;5.22;4.60;;;;;;;17.99;67.06;95388.03;5087358;28;20020;-81
2023/09/06 02:19:54;;;;;;;5.90;4.90;;;;;;;17.99;66.82;95388.03;5087467;28;20031;-80
2023/09/06 02:22:20;;;;;;;5.53;4.80;;;;;;;17.99;66.78;95381.69;5086806;28;20028;-80
2023/09/06 02:24:45;;;;;;;5.60;4.90;;;;;;;17.97;66.38;95384.19;5087257;28;20051;-80
2023/09/06 02:27:12;;;;;;;7.15;5.20;;;;;;;17.93;66.46;95394.72;5087323;28;20031;-81
2023/09/06 02:29:39;;;;;;;5.55;4.75;;;;;;;17.92;66.70;95398.75;5087114;28;20024;-80
2023/09/06 02:32:04;;;;;;;8.13;5.40;;;;;;;17.90;66.92;95396.44;5087427;28;20031;-81
2023/09/06 02:34:30;;;;;;;6.63;5.22;;;;;;;17.87;66.98;95405.72;5068788;28;20398;-81
2023/09/06 02:36:56;;;;;;;6.68;5.43;;;;;;;17.82;66.96;95397.28;5086991;28;20020;-80
2023/09/06 02:39:22;;;;;;;7.97;5.10;;;;;;;17.88;67.14;95412.06;5068702;28;20085;-81
2023/09/06 02:41:47;;;;;;;7.05;5.50;;;;;;;17.86;67.14;95409.00;5068845;28;20039;-81
2023/09/06 02:44:12;;;;;;;5.50;4.95;;;;;;;17.83;67.40;95409.94;5086305;28;20497;-81
2023/09/06 02:46:38;;;;;;;6.57;5.28;;;;;;;17.82;66.87;95400.06;5086873;28;20035;-79
2023/09/06 02:49:11;;;;;;;6.30;5.70;;;;;;;17.78;67.10;95403.03;5086715;28;20028;-80
2023/09/06 02:51:42;;;;;;;6.35;5.13;;;;;;;17.80;66.61;95394.19;5086234;28;20024;-80
2023/09/06 02:54:08;;;;;;;8.43;5.05;;;;;;;17.77;66.84;95393.88;5069099;28;20050;-80
2023/09/06 02:56:37;;;;;;;6.22;5.15;;;;;;;17.72;66.99;95402.91;5086419;28;20120;-81
2023/09/06 02:59:07;;;;;;;6.22;4.90;;;;;;;17.66;66.95;95385.31;5086503;28;20063;-80
2023/09/06 03:01:35;;;;;;;6.45;5.00;;;;;;;17.66;67.11;95401.19;5086451;28;20035;-80
2023/09/06 03:04:06;;;;;;;6.20;5.32;;;;;;;17.64;66.82;95404.44;5086605;28;20135;-81
2023/09/06 03:06:33;;;;;;;7.20;5.30;;;;;;;17.66;66.85;95410.31;5069367;28;20024;-81
2023/09/06 03:09:00;;;;;;;7.25;5.13;;;;;;;17.65;67.26;95405.22;5068395;28;20024;-80
2023/09/06 03:11:25;;;;;;;6.43;5.30;;;;;;;17.60;67.62;95398.28;5086793;28;20051;-81
2023/09/06 03:13:55;;;;;;;5.93;4.88;;;;;;;17.63;67.42;95407.72;5086331;28;20448;-80
2023/09/06 03:16:23;;;;;;;5.82;5.18;;;;;;;17.59;67.64;95413.44;5086507;28;20070;-81
2023/09/06 03:18:49;;;;;;;5.72;4.82;;;;;;;17.59;67.48;95419.00;5085967;28;20032;-81
2023/09/06 03:21:18;;;;;;;5.68;5.05;;;;;;;17.61;67.10;95413.75;5086262;28;20402;-81
2023/09/06 03:23:44;;;;;;;6.88;5.60;;;;;;;17.54;67.52;95416.84;5086136;28;20024;-80
2023/09/06 03:26:10;;;;;;;10.60;5.10;;;;;;;17.55;68.04;95412.06;5085940;28;20054;-81
2023/09/06 03:28:41;;;;;;;6.68;5.40;;;;;;;17.53;67.86;95427.19;5086457;28;20024;-80
2023/09/06 03:31:12;;;;;;;8.10;5.88;;;;;;;17.53;68.09;95420.88;5085857;28;20052;-82
2023/09/06 03:33:41;;;;;;;8.10;5.95;;;;;;;17.50;68.36;95424.63;5086463;28;20020;-81
2023/09/06 03:36:08;;;;;;;7.15;6.00;;;;;;;17.53;68.33;95415.31;5085691;28;20107;-81
2023/09/06 03:38:34;;;;;;;7.95;5.38;;;;;;;17.51;68.38;95421.34;5086127;28;20032;-81
2023/09/06 03:41:02;;;;;;;7.55;6.20;;;;;;;17.51;68.11;95424.13;5068226;28;20077;-81
2023/09/06 03:43:32;;;;;;;7.88;5.70;;;;;;;17.48;68.03;95421.50;5085969;28;20114;-81
2023/09/06 03:45:58;;;;;;;6.50;5.68;;;;;;;17.49;67.98;95432.19;5086127;28;20023;-81
2023/09/06 03:48:27;;;;;;;7.65;5.45;;;;;;;17.48;67.99;95425.06;5067522;28;20020;-80
2023/09/06 03:50:56;;;;;;;8.40;6.60;;;;;;;17.48;67.72;95427.84;5068429;28;20035;-81
2023/09/06 03:53:25;;;;;;;7.22;6.10;;;;;;;17.49;68.05;95423.84;5067241;28;20494;-80
2023/09/06 03:55:56;;;;;;;6.85;6.22;;;;;;;17.50;67.97;95433.72;5085993;28;20024;-80
2023/09/06 03:58:25;;;;;;;8.07;7.10;;;;;;;17.50;68.01;95436.50;5068162;28;20032;-81
2023/09/06 04:00:51;;;;;;;9.60;6.10;;;;;;;17.45;67.79;95431.56;5085306;28;20027;-81
2023/09/06 04:03:18;;;;;;;7.15;5.70;;;;;;;17.47;67.19;95437.44;5086257;28;20024;-81
2023/09/06 04:05:47;;;;;;;9.85;6.15;;;;;;;17.51;67.09;95442.81;5089869;28;20036;-81
2023/09/06 04:08:18;;;;;;;6.90;5.65;;;;;;;17.57;66.83;95440.19;5090347;28;20085;-81
2023/09/06 04:10:45;;;;;;;7.65;5.50;;;;;;;17.52;66.42;95436.03;5089714;28;20085;-81
2023/09/06 04:13:12;;;;;;;8.27;6.05;;;;;;;17.56;66.60;95442.19;5089702;28;20028;-80
2023/09/06 04:15:39;;;;;;;8.57;5.70;;;;;;;17.57;66.48;95443.72;5089911;28;20020;-81
2023/09/06 04:18:09;;;;;;;8.27;6.00;;;;;;;17.61;66.39;95449.88;5089848;28;20055;-81
2023/09/06 04:20:36;;;;;;;7.25;5.80;;;;;;;17.62;66.46;95454.19;5089583;28;20073;-81
2023/09/06 04:23:05;;;;;;;7.57;6.13;;;;;;;17.62;66.33;95445.84;5089349;28;20560;-81
2023/09/06 04:25:36;;;;;;;6.03;5.40;;;;;;;17.65;65.85;95456.03;5089500;28;20036;-81
2023/09/06 04:28:07;;;;;;;8.15;5.57;;;;;;;17.58;66.12;95433.38;5089470;28;20035;-81
2023/09/06 04:30:35;;;;;;;9.25;6.13;;;;;;;17.70;65.91;95447.03;5089407;28;20020;-81
2023/09/06 04:33:01;;;;;;;6.20;5.60;;;;;;;17.70;65.96;95449.06;5089701;28;20092;-80
2023/09/06 04:35:33;;;;;;;10.20;6.10;;;;;;;17.73;65.99;95448.16;5088846;28;20020;-81
2023/09/06 04:37:58;;;;;;;8.35;6.40;;;;;;;17.69;66.13;95433.63;5089387;28;20113;-81
2023/09/06 04:40:24;;;;;;;8.52;6.43;;;;;;;17.71;66.53;95431.91;5070799;28;20058;-80
2023/09/06 04:42:49;;;;;;;7.35;6.35;;;;;;;17.79;66.57;95449.03;5089151;28;20454;-80
2023/09/06 04:45:15;;;;;;;7.70;5.38;;;;;;;17.78;66.41;95450.28;5088881;28;20024;-80
2023/09/06 04:47:43;;;;;;;9.18;6.47;;;;;;;17.86;66.24;95450.72;5088990;28;20031;-81
2023/09/06 04:50:11;;;;;;;8.13;6.50;;;;;;;17.87;66.70;95449.47;5089578;28;20020;-81
2023/09/06 04:52:38;;;;;;;6.43;5.72;;;;;;;17.91;66.51;95458.41;5088554;28;20028;-81
2023/09/06 04:55:08;;;;;;;6.95;5.75;;;;;;;17.92;66.17;95449.59;5070854;28;20046;-81
2023/09/06 04:57:34;;;;;;;8.35;6.03;;;;;;;17.93;65.69;95453.91;5071094;28;20106;-81
2023/09/06 05:00:00;;;;;;;10.10;6.03;;;;;;;18.02;65.90;95455.88;5089071;28;20485;-80
2023/09/06 05:02:25;;;;;;;7.72;6.55;;;;;;;18.04;65.71;95459.69;5088425;28;20118;-81
2023/09/06 05:04:52;;;;;;;8.73;6.63;;;;;;;18.03;65.58;95451.84;5089047;28;20548;-81
2023/09/06 05:07:17;;;;;;;7.35;5.43;;;;;;;18.10;65.21;95457.03;5088867;28;20031;-81
2023/09/06 05:09:43;;;;;;;7.32;5.65;;;;;;;18.16;65.31;95460.72;5088547;28;20032;-80
2023/09/06 05:12:09;;;;;;;8.75;5.70;;;;;;;18.23;65.08;95467.91;5089047;28;20020;-80
2023/09/06 05:14:34;;;;;;;8.02;5.93;;;;;;;18.23;64.60;95454.00;5069705;28;20035;-81
2023/09/06 05:16:59;;;;;;;6.80;5.47;;;;;;;18.28;64.77;95462.47;5088624;28;20058;-81
2023/09/06 05:19:27;;;;;;;7.55;6.18;;;;;;;18.32;64.51;95462.31;5088341;28;20020;-79
2023/09/06 05:21:54;;;;;;;10.13;6.20;;;;;;;18.37;64.69;95470.00;5088675;28;20591;-81
2023/09/06 05:24:20;;;;;;;11.35;6.07;;;;;;;18.38;64.78;95467.97;5088056;28;20048;-81
2023/09/06 05:26:45;;;;;;;9.45;6.25;;;;;;;18.42;64.30;95471.38;5088226;28;20035;-81
2023/09/06 05:29:11;;;;;;;7.13;6.38;;;;;;;18.46;64.43;95481.03;5088606;28;20020;-79
2023/09/06 05:31:36;;;;;;;11.70;6.63;;;;;;;18.49;64.07;95468.22;5087855;28;20028;-80
2023/09/06 05:34:01;;;;;;;9.95;6.53;;;;;;;18.56;63.84;95468.59;5088533;28;20106;-80
2023/09/06 05:36:28;;;;;;;7.28;6.35;;;;;;;18.61;63.81;95474.75;5088643;28;20064;-80
2023/09/06 05:38:53;;;;;;;10.75;6.60;;;;;;;18.65;63.66;95478.13;5088299;28;20028;-80
2023/09/06 05:41:19;;;;;;;8.63;6.15;;;;;;;18.69;63.92;95484.31;5087679;28;20020;-81
2023/09/06 05:43:46;;;;;;;8.30;6.20;;;;;;;18.73;63.92;95476.53;5070033;28;20027;-81
2023/09/06 05:46:11;;;;;;;9.93;6.20;;;;;;;18.73;63.55;95468.94;5087858;28;20046;-81
2023/09/06 05:48:37;;;;;;;13.13;5.97;;;;;;;18.82;63.46;95476.47;5087771;28;20017;-81
2023/09/06 05:51:02;;;;;;;11.55;6.75;;;;;;;18.89;63.30;95480.91;5088173;28;20089;-81
2023/09/06 05:53:29;;;;;;;13.30;6.07;;;;;;;18.97;63.23;95479.25;5087752;28;20028;-81
2023/09/06 05:55:57;;;;;;;10.32;6.22;;;;;;;19.07;62.37;95484.25;5088053;28;20101;-81
2023/09/06 05:58:23;;;;;;;9.43;6.45;;;;;;;19.07;61.67;95470.34;5087980;28;20032;-81
2023/09/06 06:00:51;;;;;;;10.18;6.10;;;;;;;19.03;61.57;95477.34;5087707;28;20097;-81
2023/09/06 06:03:19;;;;;;;11.88;6.00;;;;;;;19.06;61.04;95487.53;5087448;28;20031;-82
2023/09/06 06:05:44;;;;;;;9.80;6.50;;;;;;;19.01;61.36;95483.41;5087612;28;20321;-80
2023/09/06 06:08:10;;;;;;;9.27;6.57;;;;;;;19.14;62.54;95488.69;5087869;28;20054;-81
2023/09/06 06:10:35;;;;;;;9.18;6.47;;;;;;;19.18;62.35;95491.28;5087382;28;20024;-80
2023/09/06 06:13:03;;;;;;;9.93;6.40;;;;;;;19.23;60.86;95494.19;5069596;28;20031;-80
2023/09/06 06:15:29;;;;;;;8.73;5.85;;;;;;;19.21;60.01;95495.88;5087645;28;20085;-81
2023/09/06 06:17:54;;;;;;;7.05;5.72;;;;;;;19.12;59.95;95496.75;5087408;28;20024;-80
2023/09/06 06:20:19;;;;;;;11.02;6.55;;;;;;;19.10;60.04;95493.69;5087055;28;20031;-81
2023/09/06 06:22:45;;;;;;;10.85;5.32;;;;;;;19.08;58.85;95498.97;5087387;28;20490;-81
2023/09/06 06:25:10;;;;;;;9.13;4.82;;;;;;;19.11;58.42;95509.16;5086964;28;20040;-80
2023/09/06 06:27:37;;;;;;;6.78;4.47;;;;;;;19.02;58.28;95514.81;5086284;28;20024;-80
2023/09/06 06:30:05;;;;;;;8.57;4.90;;;;;;;18.96;58.45;95519.50;5087367;28;20514;-80
2023/09/06 06:32:32;;;;;;;5.75;4.95;;;;;;;18.96;58.38;95520.28;5068618;28;20056;-80
2023/09/06 06:35:15;;;;;;;8.43;5.20;;;;;;;19.05;57.72;95523.00;5086994;28;20383;-81
2023/09/06 06:37:40;;;;;;;5.65;4.72;;;;;;;19.15;57.56;95520.09;5068479;28;20058;-80
2023/09/06 06:40:06;;;;;;;6.50;4.60;;;;;;;19.28;58.27;95524.16;5087244;28;20024;-81
2023/09/06 06:42:33;;;;;;;6.80;4.68;;;;;;;19.38;58.78;95524.81;5086762;28;20024;-82
2023/09/06 06:44:58;;;;;;;5.53;4.25;;;;;;;19.54;58.34;95532.72;5086907;28;20031;-80
2023/09/06 06:47:23;;;;;;;11.98;4.68;;;;;;;19.67;57.49;95532.47;5087004;28;20028;-80
2023/09/06 06:49:53;;;;;;;6.85;4.15;;;;;;;19.77;57.46;95527.53;5086470;28;20069;-80
2023/09/06 06:52:19;;;;;;;7.00;4.15;;;;;;;19.84;56.85;95524.31;5086663;28;20024;-82
2023/09/06 06:54:46;;;;;;;6.57;4.63;;;;;;;19.94;56.64;95525.00;5086037;28;20028;-80
2023/09/06 06:57:11;;;;;;;6.28;4.45;;;;;;;20.02;55.29;95521.34;5068683;28;20074;-80
2023/09/06 06:59:37;;;;;;;8.02;4.53;;;;;;;20.12;54.64;95521.97;5086641;28;20518;-81
2023/09/06 07:02:02;;;;;;;6.35;4.72;;;;;;;20.22;54.45;95520.59;5086140;28;20038;-81
2023/09/06 07:04:28;;;;;;;6.53;4.57;;;;;;;20.29;54.81;95525.75;5086800;28;20418;-80
2023/09/06 07:06:53;;;;;;;7.82;4.50;;;;;;;20.39;55.07;95524.38;5086154;28;20028;-81
2023/09/06 07:09:19;;;;;;;5.95;4.20;;;;;;;20.51;54.72;95530.13;5086346;28;20020;-81
2023/09/06 07:11:44;;;;;;;7.90;5.03;;;;;;;20.52;53.36;95523.28;5086452;28;20020;-80
2023/09/06 07:14:09;;;;;;;8.05;4.07;;;;;;;20.58;53.90;95529.72;5086521;28;20105;-81
2023/09/06 07:16:35;;;;;;;7.10;4.75;;;;;;;20.65;54.47;95527.28;5086445;28;20020;-82
2023/09/06 07:19:00;;;;;;;7.55;4.43;;;;;;;20.76;54.18;95523.88;5086377;28;20020;-79
2023/09/06 07:21:27;;;;;;;6.03;4.57;;;;;;;20.81;53.24;95525.94;5067928;28;20029;-81
2023/09/06 07:23:52;;;;;;;7.53;4.82;;;;;;;20.92;53.30;95530.88;5085841;28;20048;-80
2023/09/06 07:26:18;;;;;;;8.85;4.78;;;;;;;21.03;53.77;95531.00;5086699;28;20027;-81
2023/09/06 07:28:45;;;;;;;6.70;4.68;;;;;;;21.08;51.36;95524.72;5085858;28;20163;-81
2023/09/06 07:31:11;;;;;;;6.88;4.45;;;;;;;21.10;51.97;95529.81;5086173;28;20031;-80
2023/09/06 07:33:37;;;;;;;6.90;4.53;;;;;;;21.14;52.92;95521.97;5085955;28;20024;-81
2023/09/06 07:36:03;;;;;;;8.20;5.95;;;;;;;21.26;53.11;95525.66;5086080;28;20094;-81
2023/09/06 07:38:28;;;;;;;7.78;4.68;;;;;;;21.35;51.21;95526.28;5085912;28;20506;-82
2023/09/06 07:41:05;;;;;;;7.88;4.68;;;;;;;21.52;52.26;95517.28;5085652;28;20051;-81
2023/09/06 07:43:31;;;;;;;8.60;4.57;;;;;;;21.64;51.23;95518.91;5086195;28;20024;-81
2023/09/06 07:45:57;;;;;;;6.30;4.22;;;;;;;21.70;50.97;95509.31;5067389;28;20430;-80
2023/09/06 07:48:25;;;;;;;7.60;4.47;;;;;;;21.81;51.47;95514.22;5085889;28;20434;-81
2023/09/06 07:50:50;;;;;;;6.45;4.30;;;;;;;21.86;51.24;95505.09;5085544;28;20024;-81
2023/09/06 07:53:16;;;;;;;7.18;4.65;;;;;;;21.98;51.67;95508.75;5085576;28;20089;-80
2023/09/06 07:55:44;;;;;;;10.98;4.75;;;;;;;22.09;51.17;95506.03;5085880;28;20126;-84
2023/09/06 07:58:10;;;;;;;5.93;5.00;;;;;;;22.18;50.51;95505.84;5085875;28;20077;-82
2023/09/06 08:00:36;;;;;;;7.38;4.47;;;;;;;22.31;50.37;95516.63;5085947;28;20024;-80
2023/09/06 08:03:02;;;;;;;7.70;4.28;;;;;;;22.39;49.61;95506.47;5085469;28;20594;-83
2023/09/06 08:05:28;;;;;;;6.72;4.32;;;;;;;22.46;48.92;95500.38;5085644;28;20024;-81
2023/09/06 08:07:53;;;;;;;6.07;4.75;;;;;;;22.63;48.68;95517.28;5085603;28;20383;-82
2023/09/06 08:10:19;;;;;;;6.43;4.38;;;;;;;22.72;48.70;95505.09;5085485;28;20028;-81
2023/09/06 08:12:44;;;;;;;5.45;4.32;;;;;;;22.94;47.68;95519.22;5085300;28;20024;-80
2023/09/06 08:15:10;;;;;;;7.10;4.47;;;;;;;23.04;48.37;95502.94;5085445;28;20024;-81
2023/09/06 08:17:35;;;;;;;11.52;4.90;;;;;;;23.33;47.87;95508.09;5085902;28;20027;-82
2023/09/06 08:20:00;;;;;;;7.18;5.30;;;;;;;23.50;47.44;95516.53;5067008;28;20028;-81
2023/09/06 08:22:29;;;;;;;7.05;4.55;;;;;;;23.69;46.41;95513.28;5085607;28;20089;-82
2023/09/06 08:24:54;;;;;;;5.72;4.28;;;;;;;23.92;45.76;95506.38;5085347;28;20051;-81
2023/09/06 08:27:19;;;;;;;5.90;4.25;;;;;;;24.10;45.34;95505.84;5085493;28;20024;-81
2023/09/06 08:29:45;;;;;;;8.13;5.00;;;;;;;24.34;44.71;95516.53;5085334;28;20055;-82
2023/09/06 08:32:10;;;;;;;6.80;4.30;;;;;;;24.47;43.42;95513.16;5085276;28;20036;-82
2023/09/06 08:34:35;;;;;;;8.93;4.55;;;;;;;24.61;44.12;95517.75;5085303;28;20111;-82
2023/09/06 08:37:01;;;;;;;10.25;5.25;;;;;;;24.80;44.16;95514.34;5067425;28;20111;-82
2023/09/06 08:39:27;;;;;;;7.10;4.38;;;;;;;24.98;43.35;95513.75;5085574;28;20028;-82
2023/09/06 08:41:54;;;;;;;8.68;4.78;;;;;;;25.20;43.19;95503.69;5085368;28;20020;-82
2023/09/06 08:44:24;;;;;;;5.07;4.07;;;;;;;25.42;42.66;95503.56;5085625;28;20032;-82
2023/09/06 08:46:52;;;;;;;7.78;4.85;;;;;;;25.73;40.92;95507.16;5085117;28;20161;-81
2023/09/06 08:49:17;;;;;;;6.07;4.70;;;;;;;26.01;40.54;95510.53;5067712;28;20024;-81
2023/09/06 08:51:43;;;;;;;8.15;5.03;;;;;;;26.20;40.70;95517.00;5070665;28;20036;-82
2023/09/06 08:54:09;;;;;;;6.22;4.60;;;;;;;26.26;39.98;95502.09;5070542;28;20042;-81
2023/09/06 08:56:35;;;;;;;9.27;4.88;;;;;;;26.35;39.66;95507.41;5089067;28;20414;-80
2023/09/06 08:59:00;;;;;;;7.07;4.97;;;;;;;26.46;39.62;95513.72;5088851;28;20020;-81
2023/09/06 09:01:27;;;;;;;5.65;4.30;;;;;;;26.68;39.48;95511.94;5070537;28;20031;-81
2023/09/06 09:03:53;;;;;;;5.60;4.72;;;;;;;26.79;39.11;95506.16;5088679;28;20024;-82
2023/09/06 09:06:18;;;;;;;6.90;4.07;;;;;;;26.73;38.76;95503.41;5088945;28;20130;-81
2023/09/06 09:08:44;;;;;;;5.90;4.43;;;;;;;26.64;38.37;95509.41;5088648;28;20103;-82
2023/09/06 09:11:18;;;;;;;6.30;4.85;;;;;;;26.30;37.78;95497.72;5088402;28;20073;-82
2023/09/06 09:13:45;;;;;;;6.65;4.45;;;;;;;26.19;38.64;95501.41;5088817;28;20054;-82
2023/09/06 09:16:12;;;;;;;16.48;5.70;;;;;;;26.14;38.54;95499.41;5088256;28;20462;-82
2023/09/06 09:18:38;;;;;;;6.30;5.00;;;;;;;26.12;38.79;95510.44;5089031;28;20024;-82
2023/09/06 09:21:04;;;;;;;7.25;4.72;;;;;;;26.04;38.46;95509.50;5088267;28;20096;-82
2023/09/06 09:23:30;;;;;;;6.38;4.82;;;;;;;25.82;37.78;95509.69;5069919;28;20028;-79
2023/09/06 09:25:56;;;;;;;8.25;4.93;;;;;;;25.29;39.01;95509.00;5088087;28;20032;-82
2023/09/06 09:28:22;;;;;;;7.63;4.85;;;;;;;25.27;39.08;95509.53;5088406;28;20031;-82
2023/09/06 09:30:48;;;;;;;7.03;5.00;;;;;;;25.00;39.09;95510.41;5070088;28;20028;-82
2023/09/06 09:33:13;;;;;;;6.53;5.22;;;;;;;24.96;39.53;95496.63;5087995;28;20474;-81
2023/09/06 09:35:40;;;;;;;6.95;5.55;;;;;;;24.88;40.17;95504.84;5088577;28;20043;-82
2023/09/06 09:38:10;;;;;;;9.55;5.80;;;;;;;24.91;40.12;95505.88;5088051;28;20028;-81
2023/09/06 09:40:36;;;;;;;10.65;5.47;;;;;;;24.66;40.21;95509.78;5088223;28;20056;-83
2023/09/06 09:43:04;;;;;;;8.30;5.32;;;;;;;24.57;40.50;95499.63;5069695;28;20036;-82
2023/09/06 09:45:43;;;;;;;7.40;4.60;;;;;;;24.53;39.87;95502.69;5088156;28;20062;-80
2023/09/06 09:48:09;;;;;;;4.85;4.38;;;;;;;24.44;40.27;95505.78;5087985;28;20065;-81
2023/09/06 09:50:35;;;;;;;13.23;5.65;;;;;;;24.34;40.00;95501.69;5087776;28;20054;-81
2023/09/06 09:53:03;;;;;;;8.93;5.10;;;;;;;24.30;40.51;95501.19;5088120;28;20526;-80
2023/09/06 09:55:32;;;;;;;7.45;5.20;;;;;;;24.33;41.07;95502.97;5087516;28;20398;-81
2023/09/06 09:58:05;;;;;;;8.85;5.30;;;;;;;24.43;41.35;95495.84;5088133;28;20034;-82
2023/09/06 10:00:31;;;;;;;6.78;5.47;;;;;;;24.37;40.25;95514.72;5069291;28;20567;-81
2023/09/06 10:02:58;;;;;;;8.43;5.18;;;;;;;24.21;40.68;95493.81;5087255;28;20042;-81
2023/09/06 10:05:26;;;;;;;7.30;5.18;;;;;;;24.28;40.64;95496.09;5087467;28;20031;-81
2023/09/06 10:07:55;;;;;;;10.38;5.57;;;;;;;24.27;40.76;95496.59;5087571;28;20450;-82
2023/09/06 10:10:21;;;;;;;6.88;4.90;;;;;;;24.04;40.87;95496.66;5087541;28;20129;-82
2023/09/06 10:12:50;;;;;;;8.50;5.70;;;;;;;24.05;41.07;95491.78;5069259;28;20084;-82
2023/09/06 10:15:19;;;;;;;12.13;5.45;;;;;;;24.08;41.37;95496.38;5087910;28;20600;-81
2023/09/06 10:17:47;;;;;;;6.65;5.30;;;;;;;24.00;41.41;95496.13;5087030;28;20120;-81
2023/09/06 10:20:12;;;;;;;7.18;5.28;;;;;;;23.95;41.35;95477.25;5087640;28;20706;-80
2023/09/06 10:22:47;;;;;;;9.48;6.00;;;;;;;24.05;41.26;95477.75;5086716;28;20036;-80
2023/09/06 10:25:15;;;;;;;9.25;4.78;;;;;;;24.09;40.92;95484.66;5087144;28;20051;-82
2023/09/06 10:27:48;;;;;;;7.13;5.03;;;;;;;24.10;41.08;95480.56;5086987;28;20023;-80
2023/09/06 10:30:20;;;;;;;9.75;6.47;;;;;;;24.17;41.60;95484.88;5069070;28;20020;-82
2023/09/06 10:32:46;;;;;;;8.07;5.60;;;;;;;24.26;41.56;95487.41;5087357;28;20047;-81
2023/09/06 10:35:24;;;;;;;8.15;5.13;;;;;;;24.29;40.71;95491.22;5068728;28;20024;-82
2023/09/06 10:38:05;;;;;;;7.90;5.63;;;;;;;24.32;39.82;95478.97;5087173;28;20031;-83
2023/09/06 10:41:04;;;;;;;9.43;7.20;;;;;;;24.36;39.83;95483.06;5068874;28;20059;-82
2023/09/06 10:43:51;;;;;;;7.32;5.90;;;;;;;24.32;39.73;95481.78;5056422;28;20036;-81
2023/09/06 10:46:22;;;;;;;8.40;5.50;;;;;;;24.31;40.23;95494.28;5086972;28;20483;-81
2023/09/06 10:49:12;;;;;;;9.13;5.05;;;;;;;24.10;40.18;95483.38;5068565;28;20081;-80
2023/09/06 10:51:56;;;;;;;5.85;5.25;;;;;;;24.13;41.04;95481.56;5086294;28;20032;-80
2023/09/06 10:54:34;;;;;;;8.00;5.15;;;;;;;24.19;40.67;95484.34;5087274;28;20016;-82
2023/09/06 10:57:02;;;;;;;7.85;6.13;;;;;;;24.17;41.56;95476.44;5087054;28;20099;-82
2023/09/06 10:59:28;;;;;;;6.30;5.57;;;;;;;24.29;41.87;95488.44;5087246;28;20028;-82
2023/09/06 11:02:15;;;;;;;7.10;5.40;;;;;;;24.34;42.18;95482.81;5086772;28;20029;-82
2023/09/06 11:04:41;;;;;;;5.45;4.70;;;;;;;24.40;41.42;95473.63;5086248;28;20035;-82
2023/09/06 11:07:10;;;;;;;6.60;5.05;;;;;;;24.32;41.49;95473.38;5086886;28;20093;-82
2023/09/06 11:09:49;;;;;;;10.65;5.78;;;;;;;24.43;41.88;95475.38;5086248;28;20028;-81
2023/09/06 11:12:14;;;;;;;6.93;5.35;;;;;;;24.46;42.22;95475.13;5068777;28;20099;-81
2023/09/06 11:14:40;;;;;;;7.13;5.47;;;;;;;24.51;42.38;95473.56;5067846;28;20115;-81
2023/09/06 11:17:06;;;;;;;12.90;5.88;;;;;;;24.59;41.99;95472.50;5086589;28;20020;-82
2023/09/06 11:19:34;;;;;;;9.65;5.20;;;;;;;24.62;41.96;95465.09;5086563;28;20044;-82
2023/09/06 11:22:10;;;;;;;7.13;5.35;;;;;;;24.55;41.42;95466.41;5086174;28;20406;-82
2023/09/06 11:24:36;;;;;;;10.05;5.25;;;;;;;24.55;41.76;95469.22;5086376;28;20048;-82
2023/09/06 11:27:19;;;;;;;6.63;5.25;;;;;;;24.50;42.29;95463.63;5086269;28;20107;-82
2023/09/06 11:29:45;;;;;;;;;;;;;;;24.51;41.50;95467.97;5086985;28;20036;-81
2023/09/06 11:32:15;;;;;;;7.78;5.47;;;;;;;24.50;41.91;95455.19;5086113;28;19912;-81
2023/09/06 11:34:44;;;;;;;7.10;5.18;;;;;;;24.61;41.89;95464.34;5086000;28;20103;-82
2023/09/06 11:37:15;;;;;;;6.65;4.80;;;;;;;24.71;41.67;95455.59;5068176;28;20035;-81